Time;durP1;ratioP1;P1;durP2;ratioP2;P2;SDS_P1;SDS_P2;PMS_P1;PMS_P2;Temp;Humidity;BMP_temperature;BMP_pressure;BME280_temperature;BME280_humidity;BME280_pressure;Samples;Min_cycle;Max_cycle;Signal;HPM_P1;HPM_P2
2021/10/28 00:12:42;;;;;;;58.78;3.10;;;5.00;1.00;;;;;;5073435;28;20204;-68
2021/10/28 00:15:22;;;;;;;58.60;2.80;;;5.00;1.00;;;;;;5073256;28;20224;-68
2021/10/28 00:18:05;;;;;;;58.78;3.03;;;5.00;1.00;;;;;;5073518;28;20526;-68
2021/10/28 00:20:34;;;;;;;59.30;3.65;;;4.90;1.00;;;;;;5073791;28;20281;-66
2021/10/28 00:23:01;;;;;;;58.80;2.90;;;4.90;1.00;;;;;;5073660;28;20665;-66
2021/10/28 00:25:28;;;;;;;58.58;3.00;;;4.90;1.00;;;;;;5070416;28;20233;-67
2021/10/28 00:27:56;;;;;;;58.92;3.75;;;4.90;1.00;;;;;;5071657;28;20208;-68
2021/10/28 00:30:24;;;;;;;58.58;2.92;;;4.90;1.00;;;;;;5073121;28;20256;-66
2021/10/28 00:32:51;;;;;;;58.78;2.90;;;4.90;1.00;;;;;;5073079;28;20292;-66
2021/10/28 00:35:18;;;;;;;58.80;3.10;;;4.90;1.00;;;;;;5072635;28;20205;-67
2021/10/28 00:37:46;;;;;;;58.83;3.00;;;4.90;1.00;;;;;;5072383;28;20684;-66
2021/10/28 00:40:13;;;;;;;58.78;3.00;;;4.90;1.00;;;;;;5073132;28;20228;-66
2021/10/28 00:42:40;;;;;;;58.90;3.00;;;4.90;1.00;;;;;;5073179;28;20232;-66
2021/10/28 00:45:09;;;;;;;58.67;3.10;;;4.80;1.00;;;;;;5072421;28;20375;-66
2021/10/28 00:47:39;;;;;;;58.88;3.00;;;4.80;1.00;;;;;;5072136;28;20205;-69
2021/10/28 00:50:09;;;;;;;58.47;3.13;;;4.80;1.00;;;;;;5072539;28;20225;-67
2021/10/28 00:52:38;;;;;;;59.00;3.35;;;4.80;1.00;;;;;;5072264;28;20207;-69
2021/10/28 00:55:06;;;;;;;59.30;3.72;;;4.80;1.00;;;;;;5072058;28;20672;-66
2021/10/28 00:57:34;;;;;;;58.88;3.10;;;4.80;1.00;;;;;;5057430;28;20201;-66
2021/10/28 01:00:02;;;;;;;58.65;2.88;;;4.70;1.00;;;;;;5052723;28;20283;-66
2021/10/28 01:02:29;;;;;;;58.80;3.05;;;4.80;1.00;;;;;;5052559;28;20271;-66
2021/10/28 01:04:57;;;;;;;59.00;3.50;;;4.80;1.00;;;;;;5052066;28;20263;-66
2021/10/28 01:07:24;;;;;;;58.65;2.95;;;4.80;1.00;;;;;;5051566;28;20205;-68
2021/10/28 01:09:51;;;;;;;58.80;3.08;;;4.80;1.00;;;;;;5051985;28;20262;-66
2021/10/28 01:12:18;;;;;;;58.58;2.80;;;4.70;1.00;;;;;;5052159;28;20241;-66
2021/10/28 01:14:46;;;;;;;58.67;2.83;;;4.70;1.00;;;;;;5052096;28;20292;-69
2021/10/28 01:17:14;;;;;;;58.58;3.00;;;4.60;1.00;;;;;;5057361;28;20576;-66
2021/10/28 01:19:41;;;;;;;58.55;2.97;;;4.60;1.00;;;;;;5051954;28;20228;-67
2021/10/28 01:22:09;;;;;;;58.67;2.88;;;4.60;1.00;;;;;;5052312;28;20580;-66
2021/10/28 01:24:36;;;;;;;58.67;3.25;;;4.50;1.00;;;;;;5052368;28;20241;-65
2021/10/28 01:27:05;;;;;;;58.72;3.22;;;4.60;1.00;;;;;;5051274;28;20301;-69
2021/10/28 01:29:32;;;;;;;59.08;3.42;;;4.60;1.00;;;;;;5065768;28;20563;-66
2021/10/28 01:31:59;;;;;;;58.67;3.30;;;4.60;1.00;;;;;;5071358;28;20707;-69
2021/10/28 01:34:26;;;;;;;58.70;3.03;;;4.60;1.00;;;;;;5069380;28;20730;-66
2021/10/28 01:36:55;;;;;;;58.80;2.92;;;4.60;1.00;;;;;;5071541;28;20232;-68
2021/10/28 01:39:24;;;;;;;58.65;2.97;;;4.60;1.00;;;;;;5071557;28;20252;-66
2021/10/28 01:41:52;;;;;;;58.50;2.83;;;4.60;1.00;;;;;;5071800;28;20296;-67
2021/10/28 01:44:19;;;;;;;58.47;2.92;;;4.60;1.00;;;;;;5071728;28;20221;-66
2021/10/28 01:46:46;;;;;;;58.78;3.03;;;4.60;1.00;;;;;;5071395;28;20574;-66
2021/10/28 01:49:23;;;;;;;59.90;3.58;;;4.60;1.00;;;;;;5071521;28;20661;-67
2021/10/28 01:51:53;;;;;;;58.85;2.97;;;4.50;1.00;;;;;;5071465;28;20205;-66
2021/10/28 01:54:21;;;;;;;59.75;4.70;;;4.40;1.00;;;;;;5071515;28;20201;-67
2021/10/28 01:56:50;;;;;;;58.67;3.10;;;4.40;1.00;;;;;;5071163;28;20680;-67
2021/10/28 01:59:17;;;;;;;58.70;3.10;;;4.40;1.00;;;;;;5070067;28;20236;-67
2021/10/28 02:01:44;;;;;;;58.47;2.97;;;4.40;1.00;;;;;;5072025;28;20622;-67
2021/10/28 02:04:12;;;;;;;58.67;3.05;;;4.30;1.00;;;;;;5071599;28;20228;-67
2021/10/28 02:06:39;;;;;;;59.10;3.60;;;4.30;1.00;;;;;;5070622;28;20220;-66
2021/10/28 02:09:07;;;;;;;58.83;3.25;;;4.30;1.00;;;;;;5071530;28;20211;-67
2021/10/28 02:11:35;;;;;;;58.70;3.10;;;4.20;1.00;;;;;;5071092;28;20211;-67
2021/10/28 02:14:03;;;;;;;58.58;3.00;;;4.30;1.00;;;;;;5071442;28;20243;-67
2021/10/28 02:16:31;;;;;;;59.60;3.20;;;4.30;1.00;;;;;;5071036;28;20291;-69
2021/10/28 02:18:58;;;;;;;58.58;3.08;;;4.30;1.00;;;;;;5071191;28;20223;-69
2021/10/28 02:21:26;;;;;;;58.78;3.10;;;4.30;1.00;;;;;;5071374;28;20291;-66
2021/10/28 02:23:53;;;;;;;58.70;2.95;;;4.30;1.00;;;;;;5071573;28;20317;-66
2021/10/28 02:26:21;;;;;;;58.58;3.00;;;4.30;1.00;;;;;;5070831;28;20292;-66
2021/10/28 02:28:48;;;;;;;58.67;3.30;;;4.30;1.00;;;;;;5071093;28;20205;-66
2021/10/28 02:31:16;;;;;;;58.75;3.00;;;4.30;1.00;;;;;;5068650;28;20740;-69
2021/10/28 02:33:43;;;;;;;58.67;3.00;;;4.20;1.00;;;;;;5070837;28;20724;-69
2021/10/28 02:36:10;;;;;;;58.88;2.92;;;4.20;1.00;;;;;;5070558;28;20299;-66
2021/10/28 02:38:37;;;;;;;58.55;2.95;;;4.20;1.00;;;;;;5071328;28;20296;-66
2021/10/28 02:41:04;;;;;;;58.55;2.95;;;4.10;1.00;;;;;;5071411;28;20228;-66
2021/10/28 02:43:30;;;;;;;58.40;2.90;;;4.10;1.00;;;;;;5073493;28;20260;-66
2021/10/28 02:45:57;;;;;;;58.70;3.00;;;4.00;1.00;;;;;;5073758;28;20209;-66
2021/10/28 02:48:26;;;;;;;58.67;3.10;;;4.00;1.00;;;;;;5073521;28;20208;-65
2021/10/28 02:50:53;;;;;;;58.47;3.03;;;4.10;1.00;;;;;;5075111;28;20232;-66
2021/10/28 02:53:20;;;;;;;59.15;3.58;;;4.10;1.00;;;;;;5080564;28;20221;-67
2021/10/28 02:55:47;;;;;;;58.67;2.95;;;4.00;1.00;;;;;;5079610;28;20226;-70
2021/10/28 02:58:14;;;;;;;58.58;3.05;;;4.00;1.00;;;;;;5080240;28;20208;-66
2021/10/28 03:00:41;;;;;;;58.75;3.00;;;3.90;1.00;;;;;;5080503;28;20259;-69
2021/10/28 03:03:08;;;;;;;58.67;2.65;;;3.90;1.00;;;;;;5078728;28;20339;-67
2021/10/28 03:05:36;;;;;;;58.70;2.97;;;3.90;1.00;;;;;;5081510;28;20240;-67
2021/10/28 03:08:04;;;;;;;58.78;3.20;;;3.90;1.00;;;;;;5078125;28;20649;-67
2021/10/28 03:10:31;;;;;;;59.00;3.60;;;3.90;1.00;;;;;;5074289;28;20221;-66
2021/10/28 03:12:58;;;;;;;58.80;3.30;;;3.90;1.00;;;;;;5074402;28;20304;-68
2021/10/28 03:15:28;;;;;;;58.85;3.17;;;3.90;1.00;;;;;;5073891;28;20232;-66
2021/10/28 03:18:11;;;;;;;59.00;3.42;;;3.80;1.00;;;;;;5074183;28;20669;-66
2021/10/28 03:26:07;;;;;;;58.95;3.30;;;3.80;1.00;;;;;;5079740;28;20577;-66
2021/10/28 03:28:34;;;;;;;64.65;5.47;;;3.80;1.00;;;;;;5073863;28;20295;-67
2021/10/28 03:31:01;;;;;;;58.67;3.10;;;3.80;1.00;;;;;;5074029;28;20307;-66
2021/10/28 03:33:28;;;;;;;58.58;3.00;;;3.80;1.00;;;;;;5073991;28;20227;-66
2021/10/28 03:35:56;;;;;;;58.88;3.20;;;3.80;1.00;;;;;;5072229;28;20728;-66
2021/10/28 03:38:26;;;;;;;58.42;3.13;;;3.80;1.00;;;;;;5074276;28;20343;-67
2021/10/28 03:41:42;;;;;;;58.65;3.00;;;3.80;1.00;;;;;;5074142;28;20338;-68
2021/10/28 03:47:10;;;;;;;60.42;4.65;;;3.70;1.00;;;;;;5029787;28;20200;-66
2021/10/28 03:49:59;;;;;;;58.80;3.13;;;3.70;1.00;;;;;;5074346;28;20840;-66
2021/10/28 04:06:34;;;;;;;58.75;2.85;;;3.60;1.00;;;;;;5029186;28;20197;-66
2021/10/28 04:31:18;;;;;;;58.45;2.90;;;3.50;1.00;;;;;;5089149;28;20258;-66
2021/10/28 04:33:44;;;;;;;58.78;3.00;;;3.50;1.00;;;;;;5089250;28;20204;-66
2021/10/28 04:36:13;;;;;;;58.67;3.20;;;3.50;1.00;;;;;;5088846;28;20594;-66
2021/10/28 04:38:40;;;;;;;58.75;3.10;;;3.40;1.00;;;;;;5089064;28;20216;-66
2021/10/28 04:41:07;;;;;;;58.70;3.40;;;3.40;1.00;;;;;;5088883;28;20224;-66
2021/10/28 04:43:34;;;;;;;58.47;3.00;;;3.30;1.00;;;;;;5089295;28;20596;-66
2021/10/28 04:46:02;;;;;;;58.80;3.08;;;3.30;1.00;;;;;;5088539;28;20239;-66
2021/10/28 04:48:29;;;;;;;58.78;3.08;;;3.30;1.00;;;;;;5088863;28;20273;-67
2021/10/28 04:50:56;;;;;;;62.10;3.38;;;3.30;1.00;;;;;;5088792;28;20307;-66
2021/10/28 04:53:24;;;;;;;58.80;3.20;;;3.30;1.00;;;;;;5088652;28;20211;-67
2021/10/28 04:55:51;;;;;;;58.67;3.13;;;3.30;1.00;;;;;;5088515;28;20212;-66
2021/10/28 04:58:18;;;;;;;59.00;3.50;;;3.30;1.00;;;;;;5088760;28;20295;-66
2021/10/28 05:00:44;;;;;;;58.65;3.00;;;3.30;1.00;;;;;;5088659;28;20652;-68
2021/10/28 05:03:11;;;;;;;58.58;2.90;;;3.30;1.00;;;;;;5088681;28;20304;-65
2021/10/28 05:05:38;;;;;;;60.05;4.03;;;3.30;1.00;;;;;;5088283;28;20208;-65
2021/10/28 05:08:05;;;;;;;58.63;2.85;;;3.30;1.00;;;;;;5088323;28;20776;-67
2021/10/28 05:10:34;;;;;;;59.90;4.07;;;3.30;1.00;;;;;;5088520;28;20315;-65
2021/10/28 05:13:01;;;;;;;58.47;2.90;;;3.30;1.00;;;;;;5088588;28;20642;-65
2021/10/28 05:15:28;;;;;;;60.03;3.30;;;3.30;1.00;;;;;;5088010;28;20204;-65
2021/10/28 05:17:55;;;;;;;58.47;2.90;;;3.30;1.00;;;;;;5088315;28;20254;-65
2021/10/28 05:20:22;;;;;;;58.60;2.80;;;3.30;1.00;;;;;;5088117;28;20271;-66
2021/10/28 05:22:49;;;;;;;58.55;2.97;;;3.40;1.00;;;;;;5088401;28;20623;-66
2021/10/28 05:25:15;;;;;;;58.55;2.80;;;3.40;1.00;;;;;;5087988;28;20246;-66
2021/10/28 05:27:44;;;;;;;58.40;2.80;;;3.40;1.00;;;;;;5087849;28;20247;-65
2021/10/28 05:30:12;;;;;;;58.50;2.90;;;3.30;1.00;;;;;;5082981;28;20223;-65
2021/10/28 05:32:39;;;;;;;58.47;2.97;;;3.30;1.00;;;;;;5074484;28;20292;-65
2021/10/28 05:35:06;;;;;;;58.80;2.90;;;3.30;1.00;;;;;;5074775;28;20296;-68
2021/10/28 05:37:33;;;;;;;58.47;2.95;;;3.30;1.00;;;;;;5074358;28;20207;-65
2021/10/28 05:40:02;;;;;;;58.58;2.95;;;3.20;1.00;;;;;;5074424;28;20352;-66
2021/10/28 05:42:29;;;;;;;58.50;2.97;;;3.20;1.00;;;;;;5077367;28;20550;-65
2021/10/28 05:44:58;;;;;;;58.58;2.75;;;3.20;1.00;;;;;;5074110;28;20627;-66
2021/10/28 05:47:25;;;;;;;58.58;3.00;;;3.20;1.00;;;;;;5073754;28;20295;-66
2021/10/28 05:49:52;;;;;;;58.58;3.10;;;3.20;1.00;;;;;;5074061;28;20279;-65
2021/10/28 05:52:18;;;;;;;58.60;3.28;;;3.20;1.00;;;;;;5074295;28;20237;-66
2021/10/28 05:54:46;;;;;;;58.67;3.13;;;3.20;1.00;;;;;;5074179;28;20288;-65
2021/10/28 05:57:12;;;;;;;58.55;3.00;;;3.20;1.00;;;;;;5073893;28;20201;-66
2021/10/28 05:59:39;;;;;;;58.65;3.10;;;3.10;1.00;;;;;;5073916;28;20315;-66
2021/10/28 06:02:07;;;;;;;58.78;3.17;;;3.10;1.00;;;;;;5073936;28;20300;-66
2021/10/28 06:04:34;;;;;;;58.67;2.97;;;3.00;1.00;;;;;;5074290;28;20286;-68
2021/10/28 06:07:01;;;;;;;58.65;2.90;;;3.00;1.00;;;;;;5073623;28;20431;-65
2021/10/28 06:09:28;;;;;;;58.58;2.90;;;3.00;1.00;;;;;;5073853;28;20261;-65
2021/10/28 06:11:57;;;;;;;58.50;3.10;;;3.00;1.00;;;;;;5073666;28;20295;-66
2021/10/28 06:14:24;;;;;;;58.67;3.17;;;3.00;1.00;;;;;;5073694;28;20675;-65
2021/10/28 06:16:55;;;;;;;58.65;3.05;;;3.00;1.00;;;;;;5073349;28;20227;-67
2021/10/28 06:19:23;;;;;;;58.78;3.40;;;3.00;1.00;;;;;;5073582;28;20234;-65
2021/10/28 06:21:50;;;;;;;59.95;4.40;;;3.00;1.00;;;;;;5073853;28;20211;-65
2021/10/28 06:24:17;;;;;;;58.70;2.83;;;3.00;1.00;;;;;;5073655;28;20208;-66
2021/10/28 06:26:44;;;;;;;59.08;3.25;;;3.00;1.00;;;;;;5073273;28;20228;-66
2021/10/28 06:29:11;;;;;;;58.50;2.83;;;3.00;1.00;;;;;;5073348;28;20574;-66
2021/10/28 06:31:38;;;;;;;58.47;3.00;;;3.10;1.00;;;;;;5073800;28;20244;-65
2021/10/28 06:34:08;;;;;;;58.47;2.75;;;3.10;1.00;;;;;;5073328;28;20292;-65
2021/10/28 06:36:38;;;;;;;58.50;3.00;;;3.20;1.00;;;;;;5072961;28;20695;-65
2021/10/28 06:39:05;;;;;;;58.55;3.00;;;3.20;1.00;;;;;;5073077;28;20783;-66
2021/10/28 06:41:33;;;;;;;58.85;3.35;;;3.30;1.00;;;;;;5072583;28;20209;-66
2021/10/28 06:44:00;;;;;;;58.78;3.08;;;3.30;1.00;;;;;;5071603;28;20266;-68
2021/10/28 06:46:27;;;;;;;58.78;3.03;;;3.40;1.00;;;;;;5072217;28;20752;-66
2021/10/28 06:48:54;;;;;;;58.78;3.40;;;3.40;1.00;;;;;;5073330;28;20300;-66
2021/10/28 06:51:22;;;;;;;58.58;3.00;;;3.40;1.00;;;;;;5073101;28;20205;-65
2021/10/28 06:54:01;;;;;;;59.58;3.65;;;3.40;1.00;;;;;;5072990;28;20590;-65
2021/10/28 07:02:19;;;;;;;60.42;3.70;;;3.70;1.00;;;;;;5072859;28;20295;-65
2021/10/28 07:04:47;;;;;;;58.58;2.85;;;3.80;1.00;;;;;;5072525;28;20209;-65
2021/10/28 07:07:14;;;;;;;58.38;2.88;;;3.80;1.00;;;;;;5072668;28;20260;-65
2021/10/28 07:09:44;;;;;;;58.60;3.20;;;3.90;1.00;;;;;;5072610;28;20795;-65
2021/10/28 07:12:18;;;;;;;58.55;3.00;;;4.00;1.00;;;;;;5072666;28;20700;-65
2021/10/28 07:14:49;;;;;;;58.55;3.20;;;4.10;1.00;;;;;;5072360;28;20712;-66
2021/10/28 07:17:26;;;;;;;58.50;2.78;;;4.20;1.00;;;;;;5072235;28;20223;-65
2021/10/28 07:26:14;;;;;;;59.17;4.05;;;4.40;1.00;;;;;;5010143;28;20687;-65
2021/10/28 07:29:11;;;;;;;58.40;2.50;;;4.50;1.00;;;;;;5072219;28;20200;-66
2021/10/28 07:34:31;;;;;;;58.17;2.70;;;4.70;1.00;;;;;;5041145;28;20673;-66
2021/10/28 08:04:56;;;;;;;58.60;3.10;;;5.80;1.00;;;;;;5109624;28;20211;-66
2021/10/28 08:15:47;;;;;;;58.17;2.72;;;6.20;1.00;;;;;;5109115;28;20244;-66
2021/10/28 08:18:29;;;;;;;58.35;2.78;;;6.30;1.00;;;;;;5109684;28;20203;-68
2021/10/28 08:21:14;;;;;;;58.72;2.97;;;6.50;1.00;;;;;;5109479;28;20707;-66
2021/10/28 08:23:46;;;;;;;58.40;3.13;;;6.60;1.00;;;;;;5109360;28;20207;-66
2021/10/28 08:29:04;;;;;;;58.60;3.03;;;6.90;1.00;;;;;;5109349;28;20298;-66
2021/10/28 08:31:30;;;;;;;58.60;3.08;;;7.00;1.00;;;;;;5109526;28;20295;-70
2021/10/28 08:33:59;;;;;;;58.58;3.08;;;7.20;1.00;;;;;;5109578;28;20207;-67
2021/10/28 08:36:27;;;;;;;58.58;2.90;;;7.30;1.00;;;;;;5108662;28;20246;-66
2021/10/28 08:38:54;;;;;;;58.72;3.47;;;7.50;1.00;;;;;;5109064;28;20668;-67
2021/10/28 08:41:23;;;;;;;58.58;2.72;;;7.60;1.00;;;;;;5109046;28;20257;-67
2021/10/28 08:43:51;;;;;;;58.78;3.00;;;7.80;1.00;;;;;;5109106;28;20302;-67
2021/10/28 08:46:18;;;;;;;58.50;3.47;;;8.00;1.00;;;;;;5108597;28;20208;-67
2021/10/28 08:48:49;;;;;;;59.08;3.20;;;8.20;1.00;;;;;;5108864;28;20300;-67
2021/10/28 08:51:22;;;;;;;58.27;2.87;;;8.40;1.00;;;;;;5109083;28;20224;-67
2021/10/28 08:54:09;;;;;;;58.33;2.73;;;8.50;1.00;;;;;;5109041;28;20451;-68
2021/10/28 08:59:34;;;;;;;58.57;2.93;;;8.90;1.00;;;;;;5108742;28;20528;-67
2021/10/28 09:24:40;;;;;;;58.03;2.80;;;11.20;1.00;;;;;;5107198;28;20513;-69
2021/10/28 09:27:12;;;;;;;58.27;2.90;;;11.40;1.00;;;;;;5094441;28;20827;-67
2021/10/28 09:29:49;;;;;;;58.47;2.83;;;12.10;1.00;;;;;;5094598;28;20560;-67
2021/10/28 09:32:27;;;;;;;58.50;2.80;;;13.30;1.00;;;;;;5094449;28;20472;-67
2021/10/28 09:43:44;;;;;;;58.30;2.40;;;18.20;1.00;;;;;;5094320;28;20500;-68
2021/10/28 09:46:19;;;;;;;59.83;4.00;;;19.10;1.00;;;;;;5093993;28;20884;-67
2021/10/28 09:51:36;;;;;;;58.80;3.43;;;20.40;1.00;;;;;;5049625;28;20445;-67
2021/10/28 09:54:10;;;;;;;58.50;2.70;;;21.20;1.00;;;;;;5094180;28;20442;-68
2021/10/28 09:59:25;;;;;;;58.50;3.03;;;21.90;1.00;;;;;;5093843;28;20452;-67
2021/10/28 10:01:59;;;;;;;58.17;2.50;;;22.50;1.00;;;;;;5093775;28;20481;-67
2021/10/28 10:04:29;;;;;;;58.60;3.17;;;22.80;1.00;;;;;;5093900;28;20451;-67
2021/10/28 10:06:56;;;;;;;58.03;2.30;;;23.10;1.00;;;;;;5093653;28;20542;-67
2021/10/28 10:09:24;;;;;;;58.20;2.40;;;23.30;1.00;;;;;;5093770;28;20502;-69
2021/10/28 10:11:54;;;;;;;58.20;2.47;;;23.60;1.00;;;;;;5093711;28;20443;-71
2021/10/28 10:14:21;;;;;;;59.13;3.17;;;23.90;1.00;;;;;;5093651;28;20531;-67
2021/10/28 10:16:50;;;;;;;58.77;3.00;;;23.90;1.00;;;;;;5093242;28;20449;-67
2021/10/28 10:19:20;;;;;;;58.27;2.83;;;23.60;1.00;;;;;;5093534;28;20886;-67
2021/10/28 10:21:52;;;;;;;58.67;3.60;;;23.50;1.00;;;;;;5093501;28;20866;-67
2021/10/28 10:24:24;;;;;;;57.90;2.63;;;23.90;1.00;;;;;;5092400;28;20875;-67
2021/10/28 11:20:25;;;;;;;57.77;2.83;;;32.30;99.90;;;;;;5092392;28;20438;-68
2021/10/28 11:23:15;;;;;;;57.70;2.57;;;32.50;99.90;;;;;;5092351;28;20450;-69
2021/10/28 11:28:47;;;;;;;57.60;2.47;;;33.40;99.90;;;;;;5089978;28;20439;-66
2021/10/28 12:27:58;;;;;;;57.37;2.53;;;38.50;99.90;;;;;;5073184;28;20439;-68
2021/10/28 12:44:43;;;;;;;57.67;2.53;;;40.50;99.90;;;;;;5070906;28;20423;-67
2021/10/28 12:47:28;;;;;;;57.30;2.27;;;40.00;99.90;;;;;;5072310;28;20529;-66
2021/10/28 12:50:09;;;;;;;57.30;2.93;;;39.90;99.90;;;;;;5074691;28;20478;-66
2021/10/28 13:04:18;;;;;;;56.80;2.10;;;41.00;99.90;;;;;;4992794;28;20534;-67
2021/10/28 13:07:00;;;;;;;57.17;2.17;;;41.60;99.90;;;;;;5004460;28;20453;-66
2021/10/28 13:48:14;;;;;;;56.87;2.20;;;44.30;99.90;;;;;;5073647;28;20450;-67
2021/10/28 13:50:56;;;;;;;57.20;2.53;;;44.50;99.90;;;;;;5073355;28;20514;-69
2021/10/28 13:59:26;;;;;;;58.00;3.33;;;45.00;99.90;;;;;;5073371;28;21009;-68
2021/10/28 14:32:52;;;;;;;56.97;1.90;;;38.50;99.90;;;;;;5093040;28;20466;-69
2021/10/28 15:27:51;;;;;;;58.50;3.57;;;25.10;99.90;;;;;;5091724;28;20428;-66
2021/10/28 15:30:24;;;;;;;58.77;2.83;;;24.60;1.00;;;;;;5092024;28;20473;-67
2021/10/28 15:35:37;;;;;;;57.87;2.97;;;23.60;1.00;;;;;;5091959;28;20560;-66
2021/10/28 15:38:15;;;;;;;58.53;3.17;;;23.10;1.00;;;;;;5091742;28;20541;-67
2021/10/28 15:54:55;;;;;;;58.37;2.50;;;18.80;1.00;;;;;;5091874;28;20430;-70
2021/10/28 15:57:30;;;;;;;58.63;3.10;;;18.00;1.00;;;;;;5091198;28;20454;-67
2021/10/28 16:00:14;;;;;;;58.83;3.37;;;17.40;1.00;;;;;;5090945;28;20487;-70
2021/10/28 16:21:55;;;;;;;58.60;3.10;;;13.90;1.00;;;;;;5092226;28;20949;-69
2021/10/28 16:24:23;;;;;;;59.00;3.00;;;13.60;1.00;;;;;;5094913;28;20961;-67
2021/10/28 16:26:51;;;;;;;58.67;2.90;;;13.40;1.00;;;;;;5095166;28;20537;-66
2021/10/28 16:29:18;;;;;;;58.57;2.90;;;13.10;1.00;;;;;;5094763;28;20466;-69
2021/10/28 16:31:46;;;;;;;59.00;2.90;;;12.90;1.00;;;;;;5095347;28;20572;-67
2021/10/28 16:34:16;;;;;;;58.67;2.70;;;12.70;1.00;;;;;;5095620;28;20438;-66
2021/10/28 16:36:44;;;;;;;59.10;3.80;;;12.50;1.00;;;;;;5095087;28;20529;-67
2021/10/28 16:39:13;;;;;;;59.47;3.70;;;12.30;1.00;;;;;;5094950;28;20449;-66
2021/10/28 16:41:42;;;;;;;58.47;3.10;;;12.20;1.00;;;;;;5094675;28;20489;-67
2021/10/28 16:44:10;;;;;;;58.53;3.10;;;12.00;1.00;;;;;;5094919;28;20449;-66
2021/10/28 16:46:37;;;;;;;58.90;3.10;;;11.90;1.00;;;;;;5094548;28;20496;-67
2021/10/28 16:49:05;;;;;;;58.77;3.30;;;11.80;1.00;;;;;;5094898;28;20446;-69
2021/10/28 16:51:33;;;;;;;60.13;3.20;;;11.60;1.00;;;;;;5092987;28;20492;-66
2021/10/28 16:54:00;;;;;;;59.80;3.63;;;11.50;1.00;;;;;;5095165;28;20537;-69
2021/10/28 16:56:27;;;;;;;58.83;3.20;;;11.30;1.00;;;;;;5094447;28;20930;-67
2021/10/28 16:58:54;;;;;;;60.53;3.27;;;11.20;1.00;;;;;;5094708;28;20481;-66
2021/10/28 17:01:21;;;;;;;58.67;3.00;;;11.10;1.00;;;;;;5094479;28;20537;-67
2021/10/28 17:03:48;;;;;;;58.63;2.70;;;11.00;1.00;;;;;;5094354;28;20544;-66
2021/10/28 17:06:16;;;;;;;59.40;3.50;;;10.90;1.00;;;;;;5094254;28;20449;-67
2021/10/28 17:08:45;;;;;;;58.53;2.70;;;10.80;1.00;;;;;;5094538;28;20445;-66
2021/10/28 17:11:13;;;;;;;58.63;2.80;;;10.70;1.00;;;;;;5094324;28;20577;-66
2021/10/28 17:13:42;;;;;;;58.90;3.10;;;10.50;1.00;;;;;;5094723;28;20552;-66
2021/10/28 17:16:09;;;;;;;58.30;2.90;;;10.40;1.00;;;;;;5094542;28;20506;-67
2021/10/28 17:18:36;;;;;;;58.37;2.90;;;10.30;1.00;;;;;;5094282;28;20446;-67
2021/10/28 17:21:05;;;;;;;59.40;3.60;;;10.20;1.00;;;;;;5092692;28;20569;-66
2021/10/28 17:23:34;;;;;;;58.60;2.90;;;10.10;1.00;;;;;;5093748;28;20510;-66
2021/10/28 17:26:04;;;;;;;58.80;3.50;;;10.00;1.00;;;;;;5093980;28;20463;-68
2021/10/28 17:28:31;;;;;;;58.57;3.20;;;10.00;1.00;;;;;;5094141;28;20454;-66
2021/10/28 17:30:58;;;;;;;58.67;2.80;;;9.90;1.00;;;;;;5093946;28;20577;-66
2021/10/28 17:33:25;;;;;;;58.60;2.80;;;9.90;1.00;;;;;;5094399;28;20533;-66
2021/10/28 17:35:52;;;;;;;58.87;3.10;;;9.80;1.00;;;;;;5093797;28;20455;-66
2021/10/28 17:38:19;;;;;;;58.97;3.77;;;9.80;1.00;;;;;;5092047;28;20449;-67
2021/10/28 17:40:46;;;;;;;58.57;3.13;;;9.70;1.00;;;;;;5093240;28;20572;-68
2021/10/28 17:43:18;;;;;;;59.00;3.50;;;9.70;1.00;;;;;;5092101;28;20764;-66
2021/10/28 17:45:45;;;;;;;58.80;3.20;;;9.60;1.00;;;;;;5092923;28;20473;-66
2021/10/28 17:48:11;;;;;;;58.90;3.20;;;9.50;1.00;;;;;;5092678;28;20458;-67
2021/10/28 17:50:38;;;;;;;58.90;3.30;;;9.50;1.00;;;;;;5092259;28;20559;-67
2021/10/28 17:53:06;;;;;;;58.67;3.20;;;9.40;1.00;;;;;;5083356;28;20506;-67
2021/10/28 17:55:33;;;;;;;58.67;3.10;;;9.30;1.00;;;;;;5072244;28;20536;-67
2021/10/28 17:58:01;;;;;;;58.67;2.90;;;9.30;1.00;;;;;;5072424;28;20487;-69
2021/10/28 18:00:29;;;;;;;58.57;2.90;;;9.20;1.00;;;;;;5072166;28;20486;-66
2021/10/28 18:02:56;;;;;;;58.90;3.20;;;9.10;1.00;;;;;;5072521;28;20484;-68
2021/10/28 18:05:23;;;;;;;59.10;3.70;;;9.10;1.00;;;;;;5072233;28;20465;-71
2021/10/28 18:07:50;;;;;;;58.67;2.80;;;9.00;1.00;;;;;;5073356;28;20452;-69
2021/10/28 18:10:17;;;;;;;58.93;3.57;;;8.90;1.00;;;;;;5073142;28;20525;-67
2021/10/28 18:12:45;;;;;;;59.90;3.77;;;8.90;1.00;;;;;;5073061;28;20593;-68
2021/10/28 18:15:12;;;;;;;58.67;3.13;;;8.90;1.00;;;;;;5072839;28;20515;-67
2021/10/28 18:17:41;;;;;;;59.80;3.47;;;8.80;1.00;;;;;;5072850;28;20532;-68
2021/10/28 18:20:09;;;;;;;58.57;3.07;;;8.70;1.00;;;;;;5072811;28;20464;-67
2021/10/28 18:22:38;;;;;;;59.07;3.50;;;8.70;1.00;;;;;;5072919;28;20523;-67
2021/10/28 18:25:07;;;;;;;59.17;3.87;;;8.60;1.00;;;;;;5071900;28;20448;-67
2021/10/28 18:27:34;;;;;;;67.20;5.00;;;8.60;1.00;;;;;;5072267;28;20460;-67
2021/10/28 18:30:02;;;;;;;59.17;3.73;;;8.50;1.00;;;;;;5072426;28;21013;-67
2021/10/28 18:32:29;;;;;;;59.20;4.17;;;8.50;1.00;;;;;;5072733;28;20853;-67
2021/10/28 18:34:57;;;;;;;58.77;3.17;;;8.50;1.00;;;;;;5072820;28;20812;-67
2021/10/28 18:37:24;;;;;;;58.97;3.43;;;8.50;1.00;;;;;;5072618;28;20457;-67
2021/10/28 18:39:51;;;;;;;59.17;3.70;;;8.40;1.00;;;;;;5072465;28;20518;-67
2021/10/28 18:42:19;;;;;;;58.90;3.80;;;8.40;1.00;;;;;;5072719;28;20444;-67
2021/10/28 18:44:46;;;;;;;58.97;3.40;;;8.30;1.00;;;;;;5071511;28;20456;-68
2021/10/28 18:47:13;;;;;;;59.30;3.43;;;8.30;1.00;;;;;;5072107;28;20444;-67
2021/10/28 18:49:40;;;;;;;58.67;3.00;;;8.20;1.00;;;;;;5072605;28;20512;-67
2021/10/28 18:52:09;;;;;;;59.40;3.23;;;8.10;1.00;;;;;;5072170;28;20489;-66
2021/10/28 18:54:37;;;;;;;59.30;3.80;;;8.00;1.00;;;;;;5072190;28;20473;-70
2021/10/28 18:57:04;;;;;;;58.77;3.17;;;7.90;1.00;;;;;;5072017;28;20456;-68
2021/10/28 18:59:31;;;;;;;62.77;4.13;;;7.80;1.00;;;;;;5070634;28;20579;-66
2021/10/28 19:01:59;;;;;;;60.92;4.10;;;7.80;1.00;;;;;;5072112;28;20484;-70
2021/10/28 19:04:26;;;;;;;59.20;3.92;;;7.70;1.00;;;;;;5092387;28;20216;-65
2021/10/28 19:06:54;;;;;;;59.40;3.50;;;7.70;1.00;;;;;;5091999;28;20202;-65
2021/10/28 19:09:22;;;;;;;59.03;3.13;;;7.70;1.00;;;;;;5092215;28;20224;-65
2021/10/28 19:11:49;;;;;;;58.88;3.45;;;7.60;1.00;;;;;;5091786;28;20220;-65
2021/10/28 19:14:16;;;;;;;58.97;3.22;;;7.50;1.00;;;;;;5092363;28;20204;-70
2021/10/28 19:16:43;;;;;;;58.85;3.20;;;7.50;1.00;;;;;;5092056;28;20213;-67
2021/10/28 19:19:10;;;;;;;60.10;3.50;;;7.50;1.00;;;;;;5092247;28;20303;-69
2021/10/28 19:21:37;;;;;;;59.20;4.03;;;7.40;1.00;;;;;;5092185;28;20238;-67
2021/10/28 19:24:05;;;;;;;58.83;3.10;;;7.50;1.00;;;;;;5091995;28;20232;-68
2021/10/28 19:26:33;;;;;;;58.80;2.90;;;7.40;1.00;;;;;;5091683;28;20447;-68
2021/10/28 19:29:03;;;;;;;59.00;3.30;;;7.40;1.00;;;;;;5092017;28;20299;-67
2021/10/28 19:31:32;;;;;;;60.60;3.75;;;7.40;1.00;;;;;;5091715;28;20204;-67
2021/10/28 19:34:00;;;;;;;58.78;3.00;;;7.30;1.00;;;;;;5092110;28;20204;-71
2021/10/28 19:36:32;;;;;;;58.47;3.00;;;7.30;1.00;;;;;;5091520;28;20231;-67
2021/10/28 19:47:13;;;;;;;58.97;3.28;;;7.30;1.00;;;;;;5091324;28;20197;-67
2021/10/28 19:49:41;;;;;;;58.95;3.40;;;7.20;1.00;;;;;;5091819;28;20227;-67
2021/10/28 19:52:11;;;;;;;59.28;4.28;;;7.20;1.00;;;;;;5091639;28;20231;-70
2021/10/28 19:54:38;;;;;;;58.85;3.40;;;7.10;1.00;;;;;;5091805;28;20205;-69
2021/10/28 19:57:13;;;;;;;58.90;3.00;;;7.10;1.00;;;;;;5085972;28;20216;-68
2021/10/28 19:59:45;;;;;;;58.90;3.00;;;7.10;1.00;;;;;;5071474;28;20236;-66
2021/10/28 20:02:16;;;;;;;58.75;3.30;;;7.10;1.00;;;;;;5070702;28;20238;-70
2021/10/28 20:05:08;;;;;;;58.90;2.90;;;7.10;1.00;;;;;;5070875;28;20673;-66
2021/10/28 20:07:55;;;;;;;59.05;3.45;;;7.10;1.00;;;;;;5070477;28;20209;-67
2021/10/28 20:13:35;;;;;;;58.95;3.20;;;6.90;1.00;;;;;;5070985;28;20270;-66
2021/10/28 20:21:35;;;;;;;58.88;3.15;;;6.80;1.00;;;;;;5071225;28;20318;-66
2021/10/28 20:24:02;;;;;;;58.65;2.95;;;6.80;1.00;;;;;;5070838;28;20213;-69
2021/10/28 20:26:29;;;;;;;58.67;2.80;;;6.70;1.00;;;;;;5070447;28;20256;-66
2021/10/28 20:28:59;;;;;;;58.88;2.97;;;6.70;1.00;;;;;;5070631;28;20209;-67
2021/10/28 20:31:27;;;;;;;58.75;2.92;;;6.70;1.00;;;;;;5071116;28;20213;-67
2021/10/28 20:34:03;;;;;;;58.88;2.95;;;6.60;1.00;;;;;;5070186;28;20224;-70
2021/10/28 20:39:27;;;;;;;59.17;3.40;;;6.60;1.00;;;;;;5028726;28;20733;-68
2021/10/28 20:41:54;;;;;;;58.78;2.97;;;6.60;1.00;;;;;;5060852;28;20247;-67
2021/10/28 20:44:23;;;;;;;58.97;3.08;;;6.60;1.00;;;;;;5070407;28;20287;-67
2021/10/28 20:46:50;;;;;;;59.20;3.40;;;6.50;1.00;;;;;;5070337;28;20209;-66
2021/10/28 20:49:17;;;;;;;58.58;2.70;;;6.50;1.00;;;;;;5070582;28;20339;-69
2021/10/28 20:51:44;;;;;;;58.85;3.10;;;6.40;1.00;;;;;;5070545;28;20258;-66
2021/10/28 20:54:11;;;;;;;58.78;3.00;;;6.40;1.00;;;;;;5070831;28;20308;-68
2021/10/28 20:56:38;;;;;;;58.83;3.05;;;6.40;1.00;;;;;;5070284;28;20289;-67
2021/10/28 20:59:05;;;;;;;59.25;3.67;;;6.30;1.00;;;;;;5071119;28;20205;-69